sensor_id;sensor_type;location;lat;lon;timestamp;pressure;altitude;pressure_sealevel;temperature;humidity
83635;BME280;73596;49.482;11.238;2024-02-21T00:01:16;98952.09;;;5.39;85.04
83635;BME280;73596;49.482;11.238;2024-02-21T00:03:41;98951.28;;;5.39;85.13
83635;BME280;73596;49.482;11.238;2024-02-21T00:06:06;98944.47;;;5.38;85.28
83635;BME280;73596;49.482;11.238;2024-02-21T00:08:32;98948.75;;;5.37;85.55
83635;BME280;73596;49.482;11.238;2024-02-21T00:10:57;98941.13;;;5.36;85.63
83635;BME280;73596;49.482;11.238;2024-02-21T00:13:22;98934.28;;;5.36;84.76
83635;BME280;73596;49.482;11.238;2024-02-21T00:15:47;98937.66;;;5.37;85.20
83635;BME280;73596;49.482;11.238;2024-02-21T00:18:13;98930.81;;;5.37;85.95
83635;BME280;73596;49.482;11.238;2024-02-21T00:20:38;98940.19;;;5.38;86.04
83635;BME280;73596;49.482;11.238;2024-02-21T00:23:04;98930.81;;;5.37;85.80
83635;BME280;73596;49.482;11.238;2024-02-21T00:25:29;98925.75;;;5.36;85.85
83635;BME280;73596;49.482;11.238;2024-02-21T00:27:54;98929.19;;;5.35;86.24
83635;BME280;73596;49.482;11.238;2024-02-21T00:30:20;98918.97;;;5.35;85.97
83635;BME280;73596;49.482;11.238;2024-02-21T00:32:46;98921.53;;;5.35;86.38
83635;BME280;73596;49.482;11.238;2024-02-21T00:35:11;98913.84;;;5.35;85.95
83635;BME280;73596;49.482;11.238;2024-02-21T00:37:37;98914.69;;;5.35;86.47
83635;BME280;73596;49.482;11.238;2024-02-21T00:40:03;98916.34;;;5.36;86.14
83635;BME280;73596;49.482;11.238;2024-02-21T00:42:28;98906.91;;;5.37;87.04
83635;BME280;73596;49.482;11.238;2024-02-21T00:44:53;98906.91;;;5.37;86.38
83635;BME280;73596;49.482;11.238;2024-02-21T00:47:18;98901.81;;;5.37;86.67
83635;BME280;73596;49.482;11.238;2024-02-21T00:49:44;98899.31;;;5.35;86.37
83635;BME280;73596;49.482;11.238;2024-02-21T00:52:09;98890.78;;;5.35;86.54
83635;BME280;73596;49.482;11.238;2024-02-21T00:54:34;98889.94;;;5.34;86.63
83635;BME280;73596;49.482;11.238;2024-02-21T00:57:00;98889.91;;;5.36;86.29
83635;BME280;73596;49.482;11.238;2024-02-21T00:59:25;98873.03;;;5.30;86.19
83635;BME280;73596;49.482;11.238;2024-02-21T01:01:50;98879.66;;;5.36;86.43
83635;BME280;73596;49.482;11.238;2024-02-21T01:04:15;98880.50;;;5.36;86.69
83635;BME280;73596;49.482;11.238;2024-02-21T01:06:41;98877.09;;;5.36;86.45
83635;BME280;73596;49.482;11.238;2024-02-21T01:09:09;98880.53;;;5.35;87.07
83635;BME280;73596;49.482;11.238;2024-02-21T01:11:34;98876.31;;;5.34;86.64
83635;BME280;73596;49.482;11.238;2024-02-21T01:13:59;98878.88;;;5.34;86.16
83635;BME280;73596;49.482;11.238;2024-02-21T01:16:26;98872.91;;;5.33;86.52
83635;BME280;73596;49.482;11.238;2024-02-21T01:18:51;98865.25;;;5.33;86.64
83635;BME280;73596;49.482;11.238;2024-02-21T01:21:16;98868.69;;;5.32;86.07
83635;BME280;73596;49.482;11.238;2024-02-21T01:23:41;98864.47;;;5.31;86.18
83635;BME280;73596;49.482;11.238;2024-02-21T01:26:07;98862.84;;;5.29;86.45
83635;BME280;73596;49.482;11.238;2024-02-21T01:28:34;98863.72;;;5.28;85.95
83635;BME280;73596;49.482;11.238;2024-02-21T01:30:59;98862.13;;;5.25;86.17
83635;BME280;73596;49.482;11.238;2024-02-21T01:33:24;98864.69;;;5.25;87.14
83635;BME280;73596;49.482;11.238;2024-02-21T01:35:50;98851.97;;;5.22;86.44
83635;BME280;73596;49.482;11.238;2024-02-21T01:38:15;98863.06;;;5.23;86.82
83635;BME280;73596;49.482;11.238;2024-02-21T01:40:40;98851.88;;;5.25;86.50
83635;BME280;73596;49.482;11.238;2024-02-21T01:43:15;98854.44;;;5.25;86.82
83635;BME280;73596;49.482;11.238;2024-02-21T01:45:41;98846.75;;;5.25;87.02
83635;BME280;73596;49.482;11.238;2024-02-21T01:48:06;98844.19;;;5.25;87.09
83635;BME280;73596;49.482;11.238;2024-02-21T01:50:32;98833.94;;;5.25;86.98
83635;BME280;73596;49.482;11.238;2024-02-21T01:52:58;98839.00;;;5.27;87.39
83635;BME280;73596;49.482;11.238;2024-02-21T01:55:24;98831.31;;;5.27;87.48
83635;BME280;73596;49.482;11.238;2024-02-21T01:57:49;98824.47;;;5.27;87.47
83635;BME280;73596;49.482;11.238;2024-02-21T02:00:16;98820.09;;;5.31;87.72
83635;BME280;73596;49.482;11.238;2024-02-21T02:02:41;98818.47;;;5.28;86.65
83635;BME280;73596;49.482;11.238;2024-02-21T02:05:07;98814.88;;;5.32;87.43
83635;BME280;73596;49.482;11.238;2024-02-21T02:07:33;98812.31;;;5.32;86.49
83635;BME280;73596;49.482;11.238;2024-02-21T02:09:58;98818.38;;;5.31;86.47
83635;BME280;73596;49.482;11.238;2024-02-21T02:12:24;98820.09;;;5.31;86.29
83635;BME280;73596;49.482;11.238;2024-02-21T02:14:59;98821.72;;;5.32;87.11
83635;BME280;73596;49.482;11.238;2024-02-21T02:17:25;98820.00;;;5.32;86.45
83635;BME280;73596;49.482;11.238;2024-02-21T02:19:50;98816.56;;;5.33;85.88
83635;BME280;73596;49.482;11.238;2024-02-21T02:22:19;98817.41;;;5.34;86.33
83635;BME280;73596;49.482;11.238;2024-02-21T02:24:47;98819.13;;;5.33;86.90
83635;BME280;73596;49.482;11.238;2024-02-21T02:27:12;98814.03;;;5.32;86.88
83635;BME280;73596;49.482;11.238;2024-02-21T02:29:37;98806.44;;;5.30;86.99
83635;BME280;73596;49.482;11.238;2024-02-21T02:32:03;98810.72;;;5.30;87.12
83635;BME280;73596;49.482;11.238;2024-02-21T02:34:28;98804.75;;;5.29;86.95
83635;BME280;73596;49.482;11.238;2024-02-21T02:36:53;98803.88;;;5.30;87.30
83635;BME280;73596;49.482;11.238;2024-02-21T02:39:19;98797.88;;;5.31;87.04
83635;BME280;73596;49.482;11.238;2024-02-21T02:41:45;98795.31;;;5.31;87.07
83635;BME280;73596;49.482;11.238;2024-02-21T02:44:10;98795.31;;;5.31;87.30
83635;BME280;73596;49.482;11.238;2024-02-21T02:46:35;98788.50;;;5.30;87.70
83635;BME280;73596;49.482;11.238;2024-02-21T02:49:00;98777.38;;;5.31;87.53
83635;BME280;73596;49.482;11.238;2024-02-21T02:51:26;98775.63;;;5.32;87.76
83635;BME280;73596;49.482;11.238;2024-02-21T02:53:51;98768.78;;;5.32;87.65
83635;BME280;73596;49.482;11.238;2024-02-21T02:56:16;98763.66;;;5.32;87.22
83635;BME280;73596;49.482;11.238;2024-02-21T02:58:43;98770.47;;;5.33;87.39
83635;BME280;73596;49.482;11.238;2024-02-21T03:01:08;98773.03;;;5.33;87.32
83635;BME280;73596;49.482;11.238;2024-02-21T03:03:33;98762.81;;;5.32;87.46
83635;BME280;73596;49.482;11.238;2024-02-21T03:05:59;98765.47;;;5.30;87.41
83635;BME280;73596;49.482;11.238;2024-02-21T03:08:24;98761.22;;;5.29;87.67
83635;BME280;73596;49.482;11.238;2024-02-21T03:10:49;98751.13;;;5.26;87.38
83635;BME280;73596;49.482;11.238;2024-02-21T03:13:14;98749.44;;;5.25;87.38
83635;BME280;73596;49.482;11.238;2024-02-21T03:15:40;98757.19;;;5.24;87.88
83635;BME280;73596;49.482;11.238;2024-02-21T03:18:05;98758.06;;;5.23;87.84
83635;BME280;73596;49.482;11.238;2024-02-21T03:20:30;98758.13;;;5.21;87.72
83635;BME280;73596;49.482;11.238;2024-02-21T03:22:56;98758.94;;;5.22;88.44
83635;BME280;73596;49.482;11.238;2024-02-21T03:25:21;98758.19;;;5.20;87.78
83635;BME280;73596;49.482;11.238;2024-02-21T03:27:46;98759.03;;;5.20;88.23
83635;BME280;73596;49.482;11.238;2024-02-21T03:30:12;98743.03;;;5.13;88.20
83635;BME280;73596;49.482;11.238;2024-02-21T03:32:38;98754.00;;;5.17;88.33
83635;BME280;73596;49.482;11.238;2024-02-21T03:35:04;98746.41;;;5.16;87.80
83635;BME280;73596;49.482;11.238;2024-02-21T03:37:30;98750.69;;;5.15;88.61
83635;BME280;73596;49.482;11.238;2024-02-21T03:39:55;98741.31;;;5.14;88.59
83635;BME280;73596;49.482;11.238;2024-02-21T03:42:20;98747.34;;;5.13;88.58
83635;BME280;73596;49.482;11.238;2024-02-21T03:44:46;98738.84;;;5.12;88.39
83635;BME280;73596;49.482;11.238;2024-02-21T03:47:11;98738.00;;;5.12;88.64
83635;BME280;73596;49.482;11.238;2024-02-21T03:49:37;98746.50;;;5.12;88.44
83635;BME280;73596;49.482;11.238;2024-02-21T03:52:02;98742.28;;;5.11;88.91
83635;BME280;73596;49.482;11.238;2024-02-21T03:54:27;98735.50;;;5.10;88.83
83635;BME280;73596;49.482;11.238;2024-02-21T03:56:53;98743.19;;;5.10;88.72
83635;BME280;73596;49.482;11.238;2024-02-21T03:59:18;98739.00;;;5.08;88.36
83635;BME280;73596;49.482;11.238;2024-02-21T04:01:43;98733.94;;;5.06;88.87
83635;BME280;73596;49.482;11.238;2024-02-21T04:04:10;98720.28;;;5.06;88.70
83635;BME280;73596;49.482;11.238;2024-02-21T04:06:35;98729.66;;;5.07;88.69
83635;BME280;73596;49.482;11.238;2024-02-21T04:09:00;98722.81;;;5.07;88.55
83635;BME280;73596;49.482;11.238;2024-02-21T04:11:25;98721.97;;;5.07;88.53
83635;BME280;73596;49.482;11.238;2024-02-21T04:13:51;98715.25;;;5.04;88.68
83635;BME280;73596;49.482;11.238;2024-02-21T04:16:17;98711.81;;;5.05;88.74
83635;BME280;73596;49.482;11.238;2024-02-21T04:18:42;98710.91;;;5.06;89.28
83635;BME280;73596;49.482;11.238;2024-02-21T04:21:08;98710.06;;;5.06;88.80
83635;BME280;73596;49.482;11.238;2024-02-21T04:23:34;98701.56;;;5.05;88.81
83635;BME280;73596;49.482;11.238;2024-02-21T04:25:59;98697.25;;;5.06;89.00
83635;BME280;73596;49.482;11.238;2024-02-21T04:28:24;98698.94;;;5.07;89.72
83635;BME280;73596;49.482;11.238;2024-02-21T04:30:50;98696.38;;;5.07;89.68
83635;BME280;73596;49.482;11.238;2024-02-21T04:33:15;98691.25;;;5.07;89.35
83635;BME280;73596;49.482;11.238;2024-02-21T04:35:40;98696.38;;;5.07;89.24
83635;BME280;73596;49.482;11.238;2024-02-21T04:38:05;98697.22;;;5.07;89.72
83635;BME280;73596;49.482;11.238;2024-02-21T04:40:31;98694.66;;;5.07;90.28
83635;BME280;73596;49.482;11.238;2024-02-21T04:42:57;98698.06;;;5.08;90.11
83635;BME280;73596;49.482;11.238;2024-02-21T04:45:22;98689.47;;;5.09;90.38
83635;BME280;73596;49.482;11.238;2024-02-21T04:47:48;98693.69;;;5.10;90.65
83635;BME280;73596;49.482;11.238;2024-02-21T04:50:13;98692.78;;;5.11;91.23
83635;BME280;73596;49.482;11.238;2024-02-21T04:52:38;98686.84;;;5.10;91.29
83635;BME280;73596;49.482;11.238;2024-02-21T04:55:04;98685.25;;;5.08;91.57
83635;BME280;73596;49.482;11.238;2024-02-21T04:57:29;98685.28;;;5.06;91.60
83635;BME280;73596;49.482;11.238;2024-02-21T04:59:54;98693.81;;;5.07;91.95
83635;BME280;73596;49.482;11.238;2024-02-21T05:02:20;98688.75;;;5.05;91.65
83635;BME280;73596;49.482;11.238;2024-02-21T05:04:47;98688.81;;;5.04;91.41
83635;BME280;73596;49.482;11.238;2024-02-21T05:07:13;98683.69;;;5.04;91.23
83635;BME280;73596;49.482;11.238;2024-02-21T05:09:38;98676.84;;;5.04;91.45
83635;BME280;73596;49.482;11.238;2024-02-21T05:12:03;98679.34;;;5.06;91.38
83635;BME280;73596;49.482;11.238;2024-02-21T05:14:29;98663.97;;;5.06;91.05
83635;BME280;73596;49.482;11.238;2024-02-21T05:16:54;98666.41;;;5.09;90.80
83635;BME280;73596;49.482;11.238;2024-02-21T05:19:19;98665.53;;;5.10;90.59
83635;BME280;73596;49.482;11.238;2024-02-21T05:21:45;98654.38;;;5.11;90.99
83635;BME280;73596;49.482;11.238;2024-02-21T05:24:11;98653.56;;;5.10;90.71
83635;BME280;73596;49.482;11.238;2024-02-21T05:26:36;98653.63;;;5.09;90.84
83635;BME280;73596;49.482;11.238;2024-02-21T05:29:01;98647.81;;;5.05;91.45
83635;BME280;73596;49.482;11.238;2024-02-21T05:31:43;98642.91;;;4.99;92.07
83635;BME280;73596;49.482;11.238;2024-02-21T05:34:20;98650.78;;;4.95;92.45
83635;BME280;73596;49.482;11.238;2024-02-21T05:36:46;98650.06;;;4.91;92.27
83635;BME280;73596;49.482;11.238;2024-02-21T05:39:12;98650.97;;;4.90;91.93
83635;BME280;73596;49.482;11.238;2024-02-21T05:41:37;98652.69;;;4.90;92.38
83635;BME280;73596;49.482;11.238;2024-02-21T05:44:02;98649.38;;;4.88;91.94
83635;BME280;73596;49.482;11.238;2024-02-21T05:46:28;98646.00;;;4.86;92.06
83635;BME280;73596;49.482;11.238;2024-02-21T05:48:53;98646.97;;;4.83;92.18
83635;BME280;73596;49.482;11.238;2024-02-21T05:51:18;98647.97;;;4.79;92.27
83635;BME280;73596;49.482;11.238;2024-02-21T05:53:44;98645.53;;;4.76;92.65
83635;BME280;73596;49.482;11.238;2024-02-21T05:56:15;98644.88;;;4.71;93.25
83635;BME280;73596;49.482;11.238;2024-02-21T05:58:40;98637.31;;;4.68;93.38
83635;BME280;73596;49.482;11.238;2024-02-21T06:01:06;98634.91;;;4.65;93.02
83635;BME280;73596;49.482;11.238;2024-02-21T06:03:34;98634.94;;;4.64;92.73
83635;BME280;73596;49.482;11.238;2024-02-21T06:06:01;98636.66;;;4.63;92.44
83635;BME280;73596;49.482;11.238;2024-02-21T06:08:26;98623.06;;;4.63;92.22
83635;BME280;73596;49.482;11.238;2024-02-21T06:10:52;98629.16;;;4.59;92.34
83635;BME280;73596;49.482;11.238;2024-02-21T06:13:25;98627.63;;;4.55;91.92
83635;BME280;73596;49.482;11.238;2024-02-21T06:15:50;98637.13;;;4.51;92.27
83635;BME280;73596;49.482;11.238;2024-02-21T06:18:19;98643.28;;;4.47;92.85
83635;BME280;73596;49.482;11.238;2024-02-21T06:20:45;98651.06;;;4.44;92.97
83635;BME280;73596;49.482;11.238;2024-02-21T06:23:15;98648.97;;;4.32;92.82
83635;BME280;73596;49.482;11.238;2024-02-21T06:25:41;98637.47;;;3.97;91.78
83635;BME280;73596;49.482;11.238;2024-02-21T06:28:07;98635.81;;;3.71;92.27
83635;BME280;73596;49.482;11.238;2024-02-21T06:30:32;98643.38;;;3.50;93.39
83635;BME280;73596;49.482;11.238;2024-02-21T06:32:57;98638.63;;;3.39;93.76
83635;BME280;73596;49.482;11.238;2024-02-21T06:35:24;98643.28;;;3.27;94.85
83635;BME280;73596;49.482;11.238;2024-02-21T06:37:50;98640.88;;;3.24;95.03
83635;BME280;73596;49.482;11.238;2024-02-21T06:40:17;98655.38;;;3.21;95.55
83635;BME280;73596;49.482;11.238;2024-02-21T06:42:42;98658.16;;;3.14;95.19
83635;BME280;73596;49.482;11.238;2024-02-21T06:45:08;98654.75;;;3.15;95.90
83635;BME280;73596;49.482;11.238;2024-02-21T06:47:33;98652.19;;;3.15;95.94
83635;BME280;73596;49.482;11.238;2024-02-21T06:49:58;98661.47;;;3.17;96.53
83635;BME280;73596;49.482;11.238;2024-02-21T06:52:23;98660.63;;;3.17;96.76
83635;BME280;73596;49.482;11.238;2024-02-21T06:54:49;98659.66;;;3.21;97.31
83635;BME280;73596;49.482;11.238;2024-02-21T06:57:15;98659.53;;;3.24;97.39
83635;BME280;73596;49.482;11.238;2024-02-21T06:59:41;98653.38;;;3.31;97.35
83635;BME280;73596;49.482;11.238;2024-02-21T07:02:06;98662.50;;;3.38;97.58
83635;BME280;73596;49.482;11.238;2024-02-21T07:04:32;98659.72;;;3.44;97.31
83635;BME280;73596;49.482;11.238;2024-02-21T07:06:57;98661.31;;;3.48;97.34
83635;BME280;73596;49.482;11.238;2024-02-21T07:09:23;98659.53;;;3.50;97.46
83635;BME280;73596;49.482;11.238;2024-02-21T07:11:48;98659.38;;;3.55;97.57
83635;BME280;73596;49.482;11.238;2024-02-21T07:14:17;98643.03;;;3.83;99.16
83635;BME280;73596;49.482;11.238;2024-02-21T07:16:43;98640.50;;;3.83;99.18
83635;BME280;73596;49.482;11.238;2024-02-21T07:19:08;98632.56;;;3.91;99.14
83635;BME280;73596;49.482;11.238;2024-02-21T07:21:33;98629.84;;;3.96;98.76
83635;BME280;73596;49.482;11.238;2024-02-21T07:23:59;98623.66;;;4.01;98.24
83635;BME280;73596;49.482;11.238;2024-02-21T07:26:24;98633.78;;;4.04;97.59
83635;BME280;73596;49.482;11.238;2024-02-21T07:28:49;98625.88;;;4.10;97.94
83635;BME280;73596;49.482;11.238;2024-02-21T07:31:15;98630.84;;;4.15;97.88
83635;BME280;73596;49.482;11.238;2024-02-21T07:33:40;98638.34;;;4.19;97.51
83635;BME280;73596;49.482;11.238;2024-02-21T07:36:09;98641.56;;;4.24;97.31
83635;BME280;73596;49.482;11.238;2024-02-21T07:38:35;98635.44;;;4.28;97.21
83635;BME280;73596;49.482;11.238;2024-02-21T07:41:00;98637.81;;;4.33;96.55
83635;BME280;73596;49.482;11.238;2024-02-21T07:43:25;98634.16;;;4.40;96.43
83635;BME280;73596;49.482;11.238;2024-02-21T07:45:51;98635.63;;;4.45;95.95
83635;BME280;73596;49.482;11.238;2024-02-21T07:48:18;98626.97;;;4.49;95.69
83635;BME280;73596;49.482;11.238;2024-02-21T07:50:44;98626.59;;;4.59;95.41
83635;BME280;73596;49.482;11.238;2024-02-21T07:53:09;98619.59;;;4.64;95.38
83635;BME280;73596;49.482;11.238;2024-02-21T07:55:34;98631.25;;;4.71;94.54
83635;BME280;73596;49.482;11.238;2024-02-21T07:58:00;98618.13;;;4.80;94.67
83635;BME280;73596;49.482;11.238;2024-02-21T08:00:25;98608.25;;;4.91;95.12
83635;BME280;73596;49.482;11.238;2024-02-21T08:02:50;98608.78;;;4.99;94.49
83635;BME280;73596;49.482;11.238;2024-02-21T08:05:15;98616.16;;;5.06;93.80
83635;BME280;73596;49.482;11.238;2024-02-21T08:07:41;98618.28;;;5.17;94.40
83635;BME280;73596;49.482;11.238;2024-02-21T08:10:07;98608.69;;;5.22;93.90
83635;BME280;73596;49.482;11.238;2024-02-21T08:12:33;98606.75;;;5.29;93.06
83635;BME280;73596;49.482;11.238;2024-02-21T08:14:58;98600.50;;;5.34;93.12
83635;BME280;73596;49.482;11.238;2024-02-21T08:17:23;98597.91;;;5.36;91.99
83635;BME280;73596;49.482;11.238;2024-02-21T08:19:49;98591.69;;;5.41;91.88
83635;BME280;73596;49.482;11.238;2024-02-21T08:22:14;98588.09;;;5.45;91.77
83635;BME280;73596;49.482;11.238;2024-02-21T08:24:39;98591.28;;;5.50;90.96
83635;BME280;73596;49.482;11.238;2024-02-21T08:27:05;98585.00;;;5.57;90.92
83635;BME280;73596;49.482;11.238;2024-02-21T08:29:31;98576.13;;;5.64;90.77
83635;BME280;73596;49.482;11.238;2024-02-21T08:31:56;98572.34;;;5.73;90.82
83635;BME280;73596;49.482;11.238;2024-02-21T08:34:21;98572.69;;;5.86;90.56
83635;BME280;73596;49.482;11.238;2024-02-21T08:36:46;98571.38;;;5.96;89.65
83635;BME280;73596;49.482;11.238;2024-02-21T08:39:12;98580.22;;;6.07;89.31
83635;BME280;73596;49.482;11.238;2024-02-21T08:41:41;98575.38;;;6.20;88.67
83635;BME280;73596;49.482;11.238;2024-02-21T08:44:07;98578.31;;;6.31;87.27
83635;BME280;73596;49.482;11.238;2024-02-21T08:46:32;98579.41;;;6.44;86.95
83635;BME280;73596;49.482;11.238;2024-02-21T08:48:57;98578.47;;;6.64;85.56
83635;BME280;73596;49.482;11.238;2024-02-21T08:51:23;98575.25;;;6.77;85.00
83635;BME280;73596;49.482;11.238;2024-02-21T08:53:48;98571.34;;;6.87;84.84
83635;BME280;73596;49.482;11.238;2024-02-21T08:56:14;98565.00;;;6.94;84.78
83635;BME280;73596;49.482;11.238;2024-02-21T08:58:40;98563.13;;;6.98;83.82
83635;BME280;73596;49.482;11.238;2024-02-21T09:01:06;98562.81;;;7.04;83.14
83635;BME280;73596;49.482;11.238;2024-02-21T09:03:32;98554.06;;;7.08;82.84
83635;BME280;73596;49.482;11.238;2024-02-21T09:05:58;98553.06;;;7.11;82.53
83635;BME280;73596;49.482;11.238;2024-02-21T09:08:24;98551.31;;;7.11;81.80
83635;BME280;73596;49.482;11.238;2024-02-21T09:10:50;98556.25;;;7.16;81.61
83635;BME280;73596;49.482;11.238;2024-02-21T09:13:15;98554.09;;;7.24;82.18
83635;BME280;73596;49.482;11.238;2024-02-21T09:15:40;98558.78;;;7.33;81.16
83635;BME280;73596;49.482;11.238;2024-02-21T09:18:05;98560.75;;;7.45;81.48
83635;BME280;73596;49.482;11.238;2024-02-21T09:20:31;98556.50;;;7.61;80.33
83635;BME280;73596;49.482;11.238;2024-02-21T09:22:56;98552.44;;;7.73;79.72
83635;BME280;73596;49.482;11.238;2024-02-21T09:25:22;98541.34;;;7.88;79.08
83635;BME280;73596;49.482;11.238;2024-02-21T09:27:47;98542.13;;;8.05;78.14
83635;BME280;73596;49.482;11.238;2024-02-21T09:30:12;98544.22;;;8.14;77.91
83635;BME280;73596;49.482;11.238;2024-02-21T09:32:38;98540.22;;;8.24;75.41
83635;BME280;73596;49.482;11.238;2024-02-21T09:35:04;98540.22;;;8.40;75.91
83635;BME280;73596;49.482;11.238;2024-02-21T09:37:31;98537.56;;;8.57;75.91
83635;BME280;73596;49.482;11.238;2024-02-21T09:39:56;98539.31;;;8.57;75.46
83635;BME280;73596;49.482;11.238;2024-02-21T09:42:22;98535.75;;;8.59;75.72
83635;BME280;73596;49.482;11.238;2024-02-21T09:44:54;98528.66;;;8.63;75.66
83635;BME280;73596;49.482;11.238;2024-02-21T09:47:24;98535.38;;;8.65;75.14
83635;BME280;73596;49.482;11.238;2024-02-21T09:49:56;98535.78;;;8.73;74.75
83635;BME280;73596;49.482;11.238;2024-02-21T09:52:24;98537.66;;;8.85;74.17
83635;BME280;73596;49.482;11.238;2024-02-21T09:54:50;98527.84;;;8.92;74.63
83635;BME280;73596;49.482;11.238;2024-02-21T09:57:18;98533.56;;;8.97;74.82
83635;BME280;73596;49.482;11.238;2024-02-21T09:59:44;98532.06;;;8.93;72.48
83635;BME280;73596;49.482;11.238;2024-02-21T10:02:10;98522.53;;;8.95;72.70
83635;BME280;73596;49.482;11.238;2024-02-21T10:04:37;98517.78;;;9.03;72.17
83635;BME280;73596;49.482;11.238;2024-02-21T10:07:04;98514.19;;;9.06;71.39
83635;BME280;73596;49.482;11.238;2024-02-21T10:09:29;98511.97;;;9.14;73.57
83635;BME280;73596;49.482;11.238;2024-02-21T10:12:15;98498.63;;;9.21;73.74
83635;BME280;73596;49.482;11.238;2024-02-21T10:14:44;98492.97;;;9.30;71.86
83635;BME280;73596;49.482;11.238;2024-02-21T10:17:15;98484.09;;;9.34;69.06
83635;BME280;73596;49.482;11.238;2024-02-21T10:19:43;98482.72;;;9.29;69.35
83635;BME280;73596;49.482;11.238;2024-02-21T10:22:09;98481.34;;;9.37;71.22
83635;BME280;73596;49.482;11.238;2024-02-21T10:24:35;98472.97;;;9.48;70.45
83635;BME280;73596;49.482;11.238;2024-02-21T10:27:02;98469.00;;;9.56;70.38
83635;BME280;73596;49.482;11.238;2024-02-21T10:29:31;98472.88;;;9.64;71.54
83635;BME280;73596;49.482;11.238;2024-02-21T10:32:13;98464.31;;;9.63;71.35
83635;BME280;73596;49.482;11.238;2024-02-21T10:34:39;98464.22;;;9.65;70.58
83635;BME280;73596;49.482;11.238;2024-02-21T10:37:06;98465.41;;;9.59;67.71
83635;BME280;73596;49.482;11.238;2024-02-21T10:39:33;98457.22;;;9.52;67.65
83635;BME280;73596;49.482;11.238;2024-02-21T10:42:00;98457.22;;;9.52;69.04
83635;BME280;73596;49.482;11.238;2024-02-21T10:44:29;98452.25;;;9.64;67.22
83635;BME280;73596;49.482;11.238;2024-02-21T10:46:56;98444.41;;;9.65;67.43
83635;BME280;73596;49.482;11.238;2024-02-21T10:49:25;98442.47;;;9.69;66.48
83635;BME280;73596;49.482;11.238;2024-02-21T10:52:05;98446.88;;;9.67;66.17
83635;BME280;73596;49.482;11.238;2024-02-21T10:54:53;98436.69;;;9.65;66.90
83635;BME280;73596;49.482;11.238;2024-02-21T10:57:22;98432.97;;;9.69;66.50
83635;BME280;73596;49.482;11.238;2024-02-21T10:59:48;98435.63;;;9.82;66.42
83635;BME280;73596;49.482;11.238;2024-02-21T11:02:13;98422.34;;;9.88;67.17
83635;BME280;73596;49.482;11.238;2024-02-21T11:04:40;98420.69;;;9.87;67.55
83635;BME280;73596;49.482;11.238;2024-02-21T11:07:06;98416.00;;;9.79;66.27
83635;BME280;73596;49.482;11.238;2024-02-21T11:09:32;98411.38;;;9.84;64.92
83635;BME280;73596;49.482;11.238;2024-02-21T11:11:58;98409.56;;;9.86;64.65
83635;BME280;73596;49.482;11.238;2024-02-21T11:14:27;98404.13;;;9.77;64.84
83635;BME280;73596;49.482;11.238;2024-02-21T11:16:52;98403.84;;;9.81;66.35
83635;BME280;73596;49.482;11.238;2024-02-21T11:19:22;98397.75;;;9.82;66.54
83635;BME280;73596;49.482;11.238;2024-02-21T11:21:48;98396.13;;;9.81;68.96
83635;BME280;73596;49.482;11.238;2024-02-21T11:24:25;98377.03;;;9.84;66.59
83635;BME280;73596;49.482;11.238;2024-02-21T11:26:50;98378.69;;;9.85;63.82
83635;BME280;73596;49.482;11.238;2024-02-21T11:29:23;98369.72;;;9.90;63.71
83635;BME280;73596;49.482;11.238;2024-02-21T11:31:48;98354.44;;;9.87;65.20
83635;BME280;73596;49.482;11.238;2024-02-21T11:34:17;98354.06;;;9.93;64.46
83635;BME280;73596;49.482;11.238;2024-02-21T11:36:50;98362.63;;;9.94;66.21
83635;BME280;73596;49.482;11.238;2024-02-21T11:39:24;98344.34;;;9.97;62.87
83635;BME280;73596;49.482;11.238;2024-02-21T11:42:04;98343.31;;;9.99;65.78
83635;BME280;73596;49.482;11.238;2024-02-21T11:44:30;98338.41;;;10.09;66.04
83635;BME280;73596;49.482;11.238;2024-02-21T11:46:56;98335.84;;;10.09;65.62
83635;BME280;73596;49.482;11.238;2024-02-21T11:49:21;98326.69;;;10.17;64.35
83635;BME280;73596;49.482;11.238;2024-02-21T11:51:46;98324.31;;;10.27;64.03
83635;BME280;73596;49.482;11.238;2024-02-21T11:54:12;98323.09;;;10.33;61.44
83635;BME280;73596;49.482;11.238;2024-02-21T11:56:41;98321.13;;;10.36;61.33
83635;BME280;73596;49.482;11.238;2024-02-21T11:59:06;98320.13;;;10.39;62.18
83635;BME280;73596;49.482;11.238;2024-02-21T12:01:31;98307.50;;;10.34;62.47
83635;BME280;73596;49.482;11.238;2024-02-21T12:03:57;98310.63;;;10.39;61.31
83635;BME280;73596;49.482;11.238;2024-02-21T12:06:22;98293.38;;;10.40;61.96
83635;BME280;73596;49.482;11.238;2024-02-21T12:08:48;98295.53;;;10.46;62.94
83635;BME280;73596;49.482;11.238;2024-02-21T12:11:22;98288.22;;;10.40;65.40
83635;BME280;73596;49.482;11.238;2024-02-21T12:14:02;98287.38;;;10.39;61.70
83635;BME280;73596;49.482;11.238;2024-02-21T12:16:30;98285.13;;;10.47;60.59
83635;BME280;73596;49.482;11.238;2024-02-21T12:18:57;98275.59;;;10.48;60.10
83635;BME280;73596;49.482;11.238;2024-02-21T12:21:26;98271.25;;;10.48;60.71
83635;BME280;73596;49.482;11.238;2024-02-21T12:23:54;98265.78;;;10.53;61.93
83635;BME280;73596;49.482;11.238;2024-02-21T12:26:19;98263.81;;;10.56;59.35
83635;BME280;73596;49.482;11.238;2024-02-21T12:28:45;98262.91;;;10.57;61.22
83635;BME280;73596;49.482;11.238;2024-02-21T12:31:10;98253.59;;;10.55;60.75
83635;BME280;73596;49.482;11.238;2024-02-21T12:33:35;98255.75;;;10.61;60.20
83635;BME280;73596;49.482;11.238;2024-02-21T12:36:01;98246.88;;;10.65;59.89
83635;BME280;73596;49.482;11.238;2024-02-21T12:38:26;98241.97;;;10.73;60.53
83635;BME280;73596;49.482;11.238;2024-02-21T12:40:52;98245.41;;;10.73;59.99
83635;BME280;73596;49.482;11.238;2024-02-21T12:43:17;98230.03;;;10.72;59.44
83635;BME280;73596;49.482;11.238;2024-02-21T12:45:43;98220.28;;;10.75;59.13
83635;BME280;73596;49.482;11.238;2024-02-21T12:48:08;98218.31;;;10.79;59.40
83635;BME280;73596;49.482;11.238;2024-02-21T12:50:34;98214.91;;;10.78;61.25
83635;BME280;73596;49.482;11.238;2024-02-21T12:52:59;98212.66;;;10.74;59.83
83635;BME280;73596;49.482;11.238;2024-02-21T12:55:25;98197.03;;;10.75;61.46